sensor_id;sensor_type;location;lat;lon;timestamp;P1;durP1;ratioP1;P2;durP2;ratioP2
72060;SDS011;59925;52.136;5.420;2023-07-31T00:02:08;3.28;;;0.40;;
72060;SDS011;59925;52.136;5.420;2023-07-31T00:04:34;1.63;;;0.80;;
72060;SDS011;59925;52.136;5.420;2023-07-31T00:07:01;2.88;;;0.60;;
72060;SDS011;59925;52.136;5.420;2023-07-31T00:09:30;1.70;;;0.60;;
72060;SDS011;59925;52.136;5.420;2023-07-31T00:11:56;2.70;;;0.85;;
72060;SDS011;59925;52.136;5.420;2023-07-31T00:14:23;3.50;;;0.70;;
72060;SDS011;59925;52.136;5.420;2023-07-31T00:16:50;1.70;;;0.68;;
72060;SDS011;59925;52.136;5.420;2023-07-31T00:19:17;1.33;;;0.73;;
72060;SDS011;59925;52.136;5.420;2023-07-31T00:21:44;2.57;;;1.00;;
72060;SDS011;59925;52.136;5.420;2023-07-31T00:24:10;1.45;;;0.60;;
72060;SDS011;59925;52.136;5.420;2023-07-31T00:26:37;2.65;;;0.80;;
72060;SDS011;59925;52.136;5.420;2023-07-31T00:29:04;3.38;;;0.90;;
72060;SDS011;59925;52.136;5.420;2023-07-31T00:31:31;2.67;;;0.90;;
72060;SDS011;59925;52.136;5.420;2023-07-31T00:33:57;2.20;;;1.03;;
72060;SDS011;59925;52.136;5.420;2023-07-31T00:36:24;5.78;;;1.38;;
72060;SDS011;59925;52.136;5.420;2023-07-31T00:38:50;4.20;;;1.70;;
72060;SDS011;59925;52.136;5.420;2023-07-31T00:41:17;5.90;;;1.58;;
72060;SDS011;59925;52.136;5.420;2023-07-31T00:43:43;6.15;;;1.73;;
72060;SDS011;59925;52.136;5.420;2023-07-31T00:46:10;11.63;;;2.47;;
72060;SDS011;59925;52.136;5.420;2023-07-31T00:48:37;15.02;;;3.28;;
72060;SDS011;59925;52.136;5.420;2023-07-31T00:51:04;15.18;;;3.20;;
72060;SDS011;59925;52.136;5.420;2023-07-31T00:53:31;16.23;;;3.47;;
72060;SDS011;59925;52.136;5.420;2023-07-31T00:55:57;19.60;;;3.70;;
72060;SDS011;59925;52.136;5.420;2023-07-31T00:58:24;21.70;;;4.40;;
72060;SDS011;59925;52.136;5.420;2023-07-31T01:00:51;25.58;;;4.63;;
72060;SDS011;59925;52.136;5.420;2023-07-31T01:03:17;23.85;;;4.05;;
72060;SDS011;59925;52.136;5.420;2023-07-31T01:08:40;20.38;;;4.25;;
72060;SDS011;59925;52.136;5.420;2023-07-31T01:11:21;21.27;;;3.83;;
72060;SDS011;59925;52.136;5.420;2023-07-31T01:13:56;19.10;;;3.70;;
72060;SDS011;59925;52.136;5.420;2023-07-31T01:16:25;18.77;;;3.90;;
72060;SDS011;59925;52.136;5.420;2023-07-31T01:18:52;13.75;;;3.97;;
72060;SDS011;59925;52.136;5.420;2023-07-31T01:27:34;5.38;;;2.10;;
72060;SDS011;59925;52.136;5.420;2023-07-31T01:29:47;11.40;;;2.58;;
72060;SDS011;59925;52.136;5.420;2023-07-31T01:32:21;11.20;;;2.22;;
72060;SDS011;59925;52.136;5.420;2023-07-31T01:34:50;5.75;;;1.80;;
72060;SDS011;59925;52.136;5.420;2023-07-31T01:37:18;7.43;;;2.57;;
72060;SDS011;59925;52.136;5.420;2023-07-31T01:39:45;9.45;;;2.53;;
72060;SDS011;59925;52.136;5.420;2023-07-31T01:42:11;5.72;;;2.17;;
72060;SDS011;59925;52.136;5.420;2023-07-31T01:44:38;5.05;;;2.10;;
72060;SDS011;59925;52.136;5.420;2023-07-31T01:47:04;11.35;;;2.45;;
72060;SDS011;59925;52.136;5.420;2023-07-31T01:49:31;11.30;;;2.50;;
72060;SDS011;59925;52.136;5.420;2023-07-31T01:51:58;10.60;;;2.58;;
72060;SDS011;59925;52.136;5.420;2023-07-31T01:54:24;18.73;;;3.35;;
72060;SDS011;59925;52.136;5.420;2023-07-31T01:56:51;14.27;;;3.38;;
72060;SDS011;59925;52.136;5.420;2023-07-31T01:59:17;24.27;;;4.88;;
72060;SDS011;59925;52.136;5.420;2023-07-31T02:01:44;31.70;;;5.20;;
72060;SDS011;59925;52.136;5.420;2023-07-31T02:04:10;20.42;;;5.07;;
72060;SDS011;59925;52.136;5.420;2023-07-31T02:06:37;24.88;;;4.95;;
72060;SDS011;59925;52.136;5.420;2023-07-31T02:09:04;17.35;;;4.38;;
72060;SDS011;59925;52.136;5.420;2023-07-31T02:11:31;14.13;;;3.63;;
72060;SDS011;59925;52.136;5.420;2023-07-31T02:13:57;15.77;;;4.50;;
72060;SDS011;59925;52.136;5.420;2023-07-31T02:16:24;14.70;;;4.10;;
72060;SDS011;59925;52.136;5.420;2023-07-31T02:18:50;14.60;;;3.08;;
72060;SDS011;59925;52.136;5.420;2023-07-31T02:21:17;19.65;;;3.83;;
72060;SDS011;59925;52.136;5.420;2023-07-31T02:23:43;13.80;;;3.67;;
72060;SDS011;59925;52.136;5.420;2023-07-31T02:26:10;14.13;;;3.70;;
72060;SDS011;59925;52.136;5.420;2023-07-31T02:28:36;22.08;;;4.93;;
72060;SDS011;59925;52.136;5.420;2023-07-31T02:31:03;13.27;;;3.78;;
72060;SDS011;59925;52.136;5.420;2023-07-31T02:33:30;18.50;;;4.03;;
72060;SDS011;59925;52.136;5.420;2023-07-31T02:35:56;13.45;;;3.70;;
72060;SDS011;59925;52.136;5.420;2023-07-31T02:38:23;15.43;;;4.10;;
72060;SDS011;59925;52.136;5.420;2023-07-31T02:40:49;17.08;;;3.38;;
72060;SDS011;59925;52.136;5.420;2023-07-31T02:43:16;15.77;;;3.88;;
72060;SDS011;59925;52.136;5.420;2023-07-31T02:45:43;13.20;;;3.40;;
72060;SDS011;59925;52.136;5.420;2023-07-31T02:48:09;15.77;;;3.65;;
72060;SDS011;59925;52.136;5.420;2023-07-31T02:50:36;12.43;;;3.50;;
72060;SDS011;59925;52.136;5.420;2023-07-31T02:53:02;14.15;;;4.45;;
72060;SDS011;59925;52.136;5.420;2023-07-31T02:55:29;20.92;;;3.70;;
72060;SDS011;59925;52.136;5.420;2023-07-31T02:57:55;16.35;;;3.92;;
72060;SDS011;59925;52.136;5.420;2023-07-31T03:00:22;15.48;;;3.70;;
72060;SDS011;59925;52.136;5.420;2023-07-31T03:02:49;19.73;;;4.27;;
72060;SDS011;59925;52.136;5.420;2023-07-31T03:05:15;15.98;;;4.28;;
72060;SDS011;59925;52.136;5.420;2023-07-31T03:07:42;13.55;;;4.07;;
72060;SDS011;59925;52.136;5.420;2023-07-31T03:10:08;17.48;;;4.20;;
72060;SDS011;59925;52.136;5.420;2023-07-31T03:12:35;17.13;;;4.00;;
72060;SDS011;59925;52.136;5.420;2023-07-31T03:15:01;21.27;;;4.03;;
72060;SDS011;59925;52.136;5.420;2023-07-31T03:17:28;17.13;;;4.18;;
72060;SDS011;59925;52.136;5.420;2023-07-31T03:19:55;15.68;;;4.13;;
72060;SDS011;59925;52.136;5.420;2023-07-31T03:22:21;18.33;;;4.68;;
72060;SDS011;59925;52.136;5.420;2023-07-31T03:24:48;18.67;;;4.65;;
72060;SDS011;59925;52.136;5.420;2023-07-31T03:27:14;20.10;;;4.53;;
72060;SDS011;59925;52.136;5.420;2023-07-31T03:29:41;23.30;;;5.45;;
72060;SDS011;59925;52.136;5.420;2023-07-31T03:32:07;20.23;;;4.60;;
72060;SDS011;59925;52.136;5.420;2023-07-31T03:34:34;17.00;;;4.63;;
72060;SDS011;59925;52.136;5.420;2023-07-31T03:37:00;22.15;;;4.78;;
72060;SDS011;59925;52.136;5.420;2023-07-31T03:39:27;19.17;;;4.97;;
72060;SDS011;59925;52.136;5.420;2023-07-31T03:41:53;20.08;;;5.43;;
72060;SDS011;59925;52.136;5.420;2023-07-31T03:44:20;22.30;;;5.45;;
72060;SDS011;59925;52.136;5.420;2023-07-31T03:46:46;24.08;;;5.00;;
72060;SDS011;59925;52.136;5.420;2023-07-31T03:49:13;18.38;;;4.72;;
72060;SDS011;59925;52.136;5.420;2023-07-31T03:51:40;20.33;;;5.13;;
72060;SDS011;59925;52.136;5.420;2023-07-31T03:54:08;17.48;;;4.80;;
72060;SDS011;59925;52.136;5.420;2023-07-31T03:56:34;21.42;;;5.22;;
72060;SDS011;59925;52.136;5.420;2023-07-31T03:59:01;20.60;;;5.60;;
72060;SDS011;59925;52.136;5.420;2023-07-31T04:01:28;15.70;;;5.28;;
72060;SDS011;59925;52.136;5.420;2023-07-31T04:03:54;18.30;;;4.97;;
72060;SDS011;59925;52.136;5.420;2023-07-31T04:06:21;20.63;;;4.90;;
72060;SDS011;59925;52.136;5.420;2023-07-31T04:08:48;21.65;;;5.13;;
72060;SDS011;59925;52.136;5.420;2023-07-31T04:11:14;15.55;;;4.72;;
72060;SDS011;59925;52.136;5.420;2023-07-31T04:13:41;22.25;;;5.45;;
72060;SDS011;59925;52.136;5.420;2023-07-31T04:16:07;19.50;;;5.23;;
72060;SDS011;59925;52.136;5.420;2023-07-31T04:18:34;18.35;;;4.88;;
72060;SDS011;59925;52.136;5.420;2023-07-31T04:21:00;16.05;;;4.50;;
72060;SDS011;59925;52.136;5.420;2023-07-31T04:23:30;16.63;;;4.80;;
72060;SDS011;59925;52.136;5.420;2023-07-31T04:25:56;18.33;;;5.22;;
72060;SDS011;59925;52.136;5.420;2023-07-31T04:28:23;20.70;;;5.80;;
72060;SDS011;59925;52.136;5.420;2023-07-31T04:30:49;20.27;;;5.47;;
72060;SDS011;59925;52.136;5.420;2023-07-31T04:33:16;21.27;;;5.35;;
72060;SDS011;59925;52.136;5.420;2023-07-31T04:35:48;12.70;;;4.07;;
72060;SDS011;59925;52.136;5.420;2023-07-31T04:38:21;17.88;;;4.50;;
72060;SDS011;59925;52.136;5.420;2023-07-31T04:40:48;18.97;;;4.60;;
72060;SDS011;59925;52.136;5.420;2023-07-31T04:43:15;13.65;;;4.43;;
72060;SDS011;59925;52.136;5.420;2023-07-31T04:45:42;17.30;;;4.97;;
72060;SDS011;59925;52.136;5.420;2023-07-31T04:48:12;15.77;;;4.85;;
72060;SDS011;59925;52.136;5.420;2023-07-31T04:50:39;16.60;;;4.93;;
72060;SDS011;59925;52.136;5.420;2023-07-31T04:53:05;19.17;;;4.47;;
72060;SDS011;59925;52.136;5.420;2023-07-31T04:55:32;15.63;;;4.60;;
72060;SDS011;59925;52.136;5.420;2023-07-31T04:57:58;13.82;;;4.68;;
72060;SDS011;59925;52.136;5.420;2023-07-31T05:00:25;16.88;;;4.35;;
72060;SDS011;59925;52.136;5.420;2023-07-31T05:02:52;21.65;;;4.47;;
72060;SDS011;59925;52.136;5.420;2023-07-31T05:05:18;14.33;;;4.37;;
72060;SDS011;59925;52.136;5.420;2023-07-31T05:07:45;15.40;;;4.10;;
72060;SDS011;59925;52.136;5.420;2023-07-31T05:10:11;14.25;;;4.28;;
72060;SDS011;59925;52.136;5.420;2023-07-31T05:12:38;14.73;;;4.07;;
72060;SDS011;59925;52.136;5.420;2023-07-31T05:15:04;16.27;;;4.72;;
72060;SDS011;59925;52.136;5.420;2023-07-31T05:17:31;14.60;;;4.10;;
72060;SDS011;59925;52.136;5.420;2023-07-31T05:19:58;15.70;;;4.63;;
72060;SDS011;59925;52.136;5.420;2023-07-31T05:22:24;11.40;;;4.18;;
72060;SDS011;59925;52.136;5.420;2023-07-31T05:24:51;12.13;;;4.80;;
72060;SDS011;59925;52.136;5.420;2023-07-31T05:27:17;17.15;;;4.70;;
72060;SDS011;59925;52.136;5.420;2023-07-31T05:29:44;12.17;;;4.00;;
72060;SDS011;59925;52.136;5.420;2023-07-31T05:32:11;14.43;;;4.65;;
72060;SDS011;59925;52.136;5.420;2023-07-31T05:34:38;13.57;;;3.75;;
72060;SDS011;59925;52.136;5.420;2023-07-31T05:37:05;17.00;;;4.00;;
72060;SDS011;59925;52.136;5.420;2023-07-31T05:39:32;8.77;;;3.53;;
72060;SDS011;59925;52.136;5.420;2023-07-31T05:41:58;12.50;;;4.10;;
72060;SDS011;59925;52.136;5.420;2023-07-31T05:44:25;10.05;;;2.95;;
72060;SDS011;59925;52.136;5.420;2023-07-31T05:46:51;6.50;;;2.65;;
72060;SDS011;59925;52.136;5.420;2023-07-31T05:49:18;9.75;;;2.55;;
72060;SDS011;59925;52.136;5.420;2023-07-31T05:51:44;7.03;;;2.55;;
72060;SDS011;59925;52.136;5.420;2023-07-31T05:54:11;7.30;;;2.33;;
72060;SDS011;59925;52.136;5.420;2023-07-31T05:56:37;6.70;;;2.92;;
72060;SDS011;59925;52.136;5.420;2023-07-31T05:59:04;9.00;;;3.08;;
72060;SDS011;59925;52.136;5.420;2023-07-31T06:01:31;9.25;;;3.20;;
72060;SDS011;59925;52.136;5.420;2023-07-31T06:03:58;7.30;;;3.10;;
72060;SDS011;59925;52.136;5.420;2023-07-31T06:06:25;7.73;;;3.00;;
72060;SDS011;59925;52.136;5.420;2023-07-31T06:08:51;8.02;;;3.40;;
72060;SDS011;59925;52.136;5.420;2023-07-31T06:11:18;9.20;;;3.25;;
72060;SDS011;59925;52.136;5.420;2023-07-31T06:13:46;7.85;;;3.55;;
72060;SDS011;59925;52.136;5.420;2023-07-31T06:16:14;9.82;;;3.80;;
72060;SDS011;59925;52.136;5.420;2023-07-31T06:18:41;8.97;;;3.73;;
72060;SDS011;59925;52.136;5.420;2023-07-31T06:21:09;10.82;;;3.55;;
72060;SDS011;59925;52.136;5.420;2023-07-31T06:23:36;11.20;;;3.05;;
72060;SDS011;59925;52.136;5.420;2023-07-31T06:26:02;9.13;;;3.63;;
72060;SDS011;59925;52.136;5.420;2023-07-31T06:28:29;7.35;;;3.20;;
72060;SDS011;59925;52.136;5.420;2023-07-31T06:30:57;7.70;;;3.00;;
72060;SDS011;59925;52.136;5.420;2023-07-31T06:33:24;8.68;;;2.67;;
72060;SDS011;59925;52.136;5.420;2023-07-31T06:35:51;9.05;;;2.95;;
72060;SDS011;59925;52.136;5.420;2023-07-31T06:38:22;8.20;;;2.80;;
72060;SDS011;59925;52.136;5.420;2023-07-31T06:40:51;6.53;;;2.85;;
72060;SDS011;59925;52.136;5.420;2023-07-31T06:43:18;9.37;;;2.30;;
72060;SDS011;59925;52.136;5.420;2023-07-31T06:45:45;6.72;;;2.40;;
72060;SDS011;59925;52.136;5.420;2023-07-31T06:48:12;6.50;;;2.25;;
72060;SDS011;59925;52.136;5.420;2023-07-31T06:50:39;9.65;;;3.10;;
72060;SDS011;59925;52.136;5.420;2023-07-31T06:53:05;6.50;;;2.22;;
72060;SDS011;59925;52.136;5.420;2023-07-31T06:55:32;5.83;;;2.30;;
72060;SDS011;59925;52.136;5.420;2023-07-31T06:58:00;4.95;;;2.33;;
72060;SDS011;59925;52.136;5.420;2023-07-31T07:00:27;5.07;;;2.60;;
72060;SDS011;59925;52.136;5.420;2023-07-31T07:02:53;4.45;;;2.40;;
72060;SDS011;59925;52.136;5.420;2023-07-31T07:05:20;5.72;;;2.60;;
72060;SDS011;59925;52.136;5.420;2023-07-31T07:07:48;5.43;;;2.43;;
72060;SDS011;59925;52.136;5.420;2023-07-31T07:10:16;5.57;;;2.40;;
72060;SDS011;59925;52.136;5.420;2023-07-31T07:12:43;6.97;;;2.63;;
72060;SDS011;59925;52.136;5.420;2023-07-31T07:15:10;5.28;;;2.33;;
72060;SDS011;59925;52.136;5.420;2023-07-31T07:17:36;30.58;;;6.72;;
72060;SDS011;59925;52.136;5.420;2023-07-31T07:20:03;6.60;;;2.90;;
72060;SDS011;59925;52.136;5.420;2023-07-31T07:22:30;4.15;;;2.38;;
72060;SDS011;59925;52.136;5.420;2023-07-31T07:24:56;5.97;;;3.00;;
72060;SDS011;59925;52.136;5.420;2023-07-31T07:27:23;4.95;;;2.25;;
72060;SDS011;59925;52.136;5.420;2023-07-31T07:29:50;7.47;;;2.92;;
72060;SDS011;59925;52.136;5.420;2023-07-31T07:32:20;5.07;;;2.47;;
72060;SDS011;59925;52.136;5.420;2023-07-31T07:34:47;7.55;;;2.53;;
72060;SDS011;59925;52.136;5.420;2023-07-31T07:37:15;4.47;;;2.17;;
72060;SDS011;59925;52.136;5.420;2023-07-31T07:39:42;6.88;;;2.72;;
72060;SDS011;59925;52.136;5.420;2023-07-31T07:42:08;4.43;;;2.53;;
72060;SDS011;59925;52.136;5.420;2023-07-31T07:44:35;4.27;;;2.40;;
72060;SDS011;59925;52.136;5.420;2023-07-31T07:47:02;6.68;;;2.78;;
72060;SDS011;59925;52.136;5.420;2023-07-31T07:49:28;6.60;;;2.67;;
72060;SDS011;59925;52.136;5.420;2023-07-31T07:51:55;5.80;;;2.55;;
72060;SDS011;59925;52.136;5.420;2023-07-31T07:54:21;5.85;;;2.22;;
72060;SDS011;59925;52.136;5.420;2023-07-31T07:56:48;4.20;;;2.53;;
72060;SDS011;59925;52.136;5.420;2023-07-31T07:59:15;4.78;;;2.55;;
72060;SDS011;59925;52.136;5.420;2023-07-31T08:01:42;6.10;;;2.40;;
72060;SDS011;59925;52.136;5.420;2023-07-31T08:04:08;3.80;;;2.03;;
72060;SDS011;59925;52.136;5.420;2023-07-31T08:06:35;5.13;;;2.20;;
72060;SDS011;59925;52.136;5.420;2023-07-31T08:09:01;4.07;;;2.17;;
72060;SDS011;59925;52.136;5.420;2023-07-31T08:11:32;3.17;;;1.80;;
72060;SDS011;59925;52.136;5.420;2023-07-31T08:13:59;3.42;;;1.60;;
72060;SDS011;59925;52.136;5.420;2023-07-31T08:16:25;3.00;;;1.80;;
72060;SDS011;59925;52.136;5.420;2023-07-31T08:18:52;3.28;;;1.35;;
72060;SDS011;59925;52.136;5.420;2023-07-31T08:21:21;3.57;;;1.30;;
72060;SDS011;59925;52.136;5.420;2023-07-31T08:23:49;3.78;;;1.60;;
72060;SDS011;59925;52.136;5.420;2023-07-31T08:26:16;2.83;;;1.35;;
72060;SDS011;59925;52.136;5.420;2023-07-31T08:28:43;3.33;;;1.45;;
72060;SDS011;59925;52.136;5.420;2023-07-31T08:31:10;5.53;;;1.58;;
72060;SDS011;59925;52.136;5.420;2023-07-31T08:33:37;2.83;;;1.27;;
72060;SDS011;59925;52.136;5.420;2023-07-31T08:36:05;2.17;;;1.27;;
72060;SDS011;59925;52.136;5.420;2023-07-31T08:38:31;2.72;;;1.20;;
72060;SDS011;59925;52.136;5.420;2023-07-31T08:40:58;1.75;;;0.80;;
72060;SDS011;59925;52.136;5.420;2023-07-31T08:43:25;1.80;;;1.10;;
72060;SDS011;59925;52.136;5.420;2023-07-31T08:45:52;2.37;;;0.80;;
72060;SDS011;59925;52.136;5.420;2023-07-31T08:48:20;2.45;;;1.30;;
72060;SDS011;59925;52.136;5.420;2023-07-31T08:50:48;2.17;;;1.10;;
72060;SDS011;59925;52.136;5.420;2023-07-31T08:53:15;2.30;;;1.00;;
72060;SDS011;59925;52.136;5.420;2023-07-31T08:55:44;2.28;;;1.10;;
72060;SDS011;59925;52.136;5.420;2023-07-31T08:58:10;3.47;;;1.00;;
72060;SDS011;59925;52.136;5.420;2023-07-31T09:00:39;2.55;;;1.27;;
72060;SDS011;59925;52.136;5.420;2023-07-31T09:03:19;2.15;;;0.95;;
72060;SDS011;59925;52.136;5.420;2023-07-31T09:05:49;2.15;;;1.08;;
72060;SDS011;59925;52.136;5.420;2023-07-31T09:08:18;1.77;;;0.98;;
72060;SDS011;59925;52.136;5.420;2023-07-31T09:10:46;3.17;;;1.17;;
72060;SDS011;59925;52.136;5.420;2023-07-31T09:13:14;1.98;;;0.93;;
72060;SDS011;59925;52.136;5.420;2023-07-31T09:15:43;1.73;;;1.20;;
72060;SDS011;59925;52.136;5.420;2023-07-31T09:18:11;3.70;;;1.08;;
72060;SDS011;59925;52.136;5.420;2023-07-31T09:20:37;4.38;;;0.90;;
72060;SDS011;59925;52.136;5.420;2023-07-31T09:23:05;2.20;;;1.10;;
72060;SDS011;59925;52.136;5.420;2023-07-31T09:25:35;3.67;;;1.40;;
72060;SDS011;59925;52.136;5.420;2023-07-31T09:28:03;3.38;;;1.23;;
72060;SDS011;59925;52.136;5.420;2023-07-31T09:30:47;2.65;;;1.50;;
72060;SDS011;59925;52.136;5.420;2023-07-31T09:33:16;4.47;;;1.85;;
72060;SDS011;59925;52.136;5.420;2023-07-31T09:35:43;2.00;;;1.30;;
72060;SDS011;59925;52.136;5.420;2023-07-31T09:38:10;3.22;;;1.33;;
72060;SDS011;59925;52.136;5.420;2023-07-31T09:40:41;3.55;;;1.35;;
72060;SDS011;59925;52.136;5.420;2023-07-31T09:43:12;4.13;;;1.67;;
72060;SDS011;59925;52.136;5.420;2023-07-31T09:45:44;3.83;;;1.80;;
72060;SDS011;59925;52.136;5.420;2023-07-31T09:50:39;2.60;;;1.70;;
72060;SDS011;59925;52.136;5.420;2023-07-31T09:53:07;3.03;;;1.20;;
72060;SDS011;59925;52.136;5.420;2023-07-31T09:55:35;2.20;;;1.40;;
72060;SDS011;59925;52.136;5.420;2023-07-31T09:58:03;2.95;;;1.40;;
72060;SDS011;59925;52.136;5.420;2023-07-31T10:00:31;2.47;;;1.40;;
72060;SDS011;59925;52.136;5.420;2023-07-31T10:02:59;3.55;;;1.30;;
72060;SDS011;59925;52.136;5.420;2023-07-31T10:05:42;2.00;;;1.55;;
72060;SDS011;59925;52.136;5.420;2023-07-31T10:08:14;3.80;;;1.38;;
72060;SDS011;59925;52.136;5.420;2023-07-31T10:10:42;2.05;;;1.17;;
72060;SDS011;59925;52.136;5.420;2023-07-31T10:13:10;3.17;;;1.60;;
72060;SDS011;59925;52.136;5.420;2023-07-31T10:15:38;1.90;;;1.35;;
72060;SDS011;59925;52.136;5.420;2023-07-31T10:18:07;3.58;;;1.70;;
72060;SDS011;59925;52.136;5.420;2023-07-31T10:20:34;2.80;;;1.65;;
72060;SDS011;59925;52.136;5.420;2023-07-31T10:23:03;5.10;;;2.00;;
72060;SDS011;59925;52.136;5.420;2023-07-31T10:25:30;3.67;;;2.30;;
72060;SDS011;59925;52.136;5.420;2023-07-31T10:27:58;5.00;;;2.35;;
72060;SDS011;59925;52.136;5.420;2023-07-31T10:30:27;3.38;;;2.15;;
72060;SDS011;59925;52.136;5.420;2023-07-31T10:32:56;3.75;;;2.33;;
72060;SDS011;59925;52.136;5.420;2023-07-31T10:35:24;5.70;;;2.45;;
72060;SDS011;59925;52.136;5.420;2023-07-31T10:37:51;6.37;;;3.03;;
72060;SDS011;59925;52.136;5.420;2023-07-31T10:40:19;5.82;;;2.97;;
72060;SDS011;59925;52.136;5.420;2023-07-31T10:42:54;5.53;;;3.05;;
72060;SDS011;59925;52.136;5.420;2023-07-31T10:45:36;6.68;;;3.17;;
72060;SDS011;59925;52.136;5.420;2023-07-31T10:48:17;5.85;;;3.20;;
72060;SDS011;59925;52.136;5.420;2023-07-31T10:50:48;7.10;;;2.90;;
72060;SDS011;59925;52.136;5.420;2023-07-31T10:53:26;4.50;;;2.75;;
72060;SDS011;59925;52.136;5.420;2023-07-31T10:55:59;4.35;;;2.85;;
72060;SDS011;59925;52.136;5.420;2023-07-31T10:58:33;7.40;;;2.92;;
72060;SDS011;59925;52.136;5.420;2023-07-31T11:01:02;5.57;;;2.70;;
72060;SDS011;59925;52.136;5.420;2023-07-31T11:03:51;5.67;;;2.40;;
72060;SDS011;59925;52.136;5.420;2023-07-31T11:06:20;4.85;;;2.63;;
72060;SDS011;59925;52.136;5.420;2023-07-31T11:08:47;4.40;;;2.20;;
72060;SDS011;59925;52.136;5.420;2023-07-31T11:11:16;4.65;;;2.30;;
72060;SDS011;59925;52.136;5.420;2023-07-31T11:16:22;3.43;;;2.23;;
72060;SDS011;59925;52.136;5.420;2023-07-31T11:18:50;4.53;;;2.40;;
72060;SDS011;59925;52.136;5.420;2023-07-31T11:21:20;3.25;;;1.55;;
72060;SDS011;59925;52.136;5.420;2023-07-31T11:23:52;2.70;;;1.55;;
72060;SDS011;59925;52.136;5.420;2023-07-31T11:26:20;2.20;;;1.50;;
72060;SDS011;59925;52.136;5.420;2023-07-31T11:28:47;2.73;;;1.80;;
72060;SDS011;59925;52.136;5.420;2023-07-31T11:31:14;3.47;;;1.50;;
72060;SDS011;59925;52.136;5.420;2023-07-31T11:33:40;2.35;;;1.33;;
72060;SDS011;59925;52.136;5.420;2023-07-31T11:36:15;3.20;;;1.67;;
72060;SDS011;59925;52.136;5.420;2023-07-31T11:38:45;1.77;;;1.30;;
72060;SDS011;59925;52.136;5.420;2023-07-31T11:41:16;1.83;;;1.50;;
72060;SDS011;59925;52.136;5.420;2023-07-31T11:43:45;3.63;;;1.58;;
72060;SDS011;59925;52.136;5.420;2023-07-31T11:46:12;2.05;;;1.33;;
72060;SDS011;59925;52.136;5.420;2023-07-31T11:48:41;2.08;;;1.40;;
72060;SDS011;59925;52.136;5.420;2023-07-31T11:51:08;3.40;;;1.73;;
72060;SDS011;59925;52.136;5.420;2023-07-31T11:56:13;2.67;;;1.70;;
72060;SDS011;59925;52.136;5.420;2023-07-31T11:58:41;3.70;;;2.13;;
72060;SDS011;59925;52.136;5.420;2023-07-31T12:01:10;3.30;;;2.10;;
72060;SDS011;59925;52.136;5.420;2023-07-31T12:03:37;4.65;;;2.15;;
72060;SDS011;59925;52.136;5.420;2023-07-31T12:06:04;3.87;;;2.10;;
72060;SDS011;59925;52.136;5.420;2023-07-31T12:08:31;3.40;;;2.67;;
72060;SDS011;59925;52.136;5.420;2023-07-31T12:11:02;5.68;;;2.65;;
72060;SDS011;59925;52.136;5.420;2023-07-31T12:13:30;3.63;;;2.33;;
72060;SDS011;59925;52.136;5.420;2023-07-31T12:15:58;3.45;;;2.08;;
72060;SDS011;59925;52.136;5.420;2023-07-31T12:18:28;2.97;;;2.00;;
72060;SDS011;59925;52.136;5.420;2023-07-31T12:20:57;4.22;;;2.00;;
72060;SDS011;59925;52.136;5.420;2023-07-31T12:23:26;5.22;;;1.85;;
72060;SDS011;59925;52.136;5.420;2023-07-31T12:26:00;3.72;;;1.85;;
72060;SDS011;59925;52.136;5.420;2023-07-31T12:28:26;2.53;;;1.88;;
72060;SDS011;59925;52.136;5.420;2023-07-31T12:30:56;3.17;;;2.17;;
72060;SDS011;59925;52.136;5.420;2023-07-31T12:33:30;2.88;;;1.70;;
72060;SDS011;59925;52.136;5.420;2023-07-31T12:36:01;3.85;;;1.90;;
72060;SDS011;59925;52.136;5.420;2023-07-31T12:38:30;3.60;;;1.75;;
72060;SDS011;59925;52.136;5.420;2023-07-31T12:40:57;3.63;;;2.15;;
72060;SDS011;59925;52.136;5.420;2023-07-31T12:43:23;3.30;;;1.80;;
72060;SDS011;59925;52.136;5.420;2023-07-31T12:45:50;3.20;;;2.05;;
72060;SDS011;59925;52.136;5.420;2023-07-31T12:48:17;2.05;;;1.65;;
72060;SDS011;59925;52.136;5.420;2023-07-31T12:50:43;3.53;;;1.85;;
72060;SDS011;59925;52.136;5.420;2023-07-31T12:53:10;5.15;;;1.92;;
72060;SDS011;59925;52.136;5.420;2023-07-31T12:55:36;2.77;;;2.10;;
72060;SDS011;59925;52.136;5.420;2023-07-31T12:58:03;2.53;;;2.10;;
72060;SDS011;59925;52.136;5.420;2023-07-31T13:00:30;3.40;;;2.03;;
72060;SDS011;59925;52.136;5.420;2023-07-31T13:02:56;2.78;;;2.10;;
72060;SDS011;59925;52.136;5.420;2023-07-31T13:05:23;4.50;;;2.40;;
72060;SDS011;59925;52.136;5.420;2023-07-31T13:07:50;4.10;;;2.60;;
72060;SDS011;59925;52.136;5.420;2023-07-31T13:10:18;9.05;;;3.50;;
72060;SDS011;59925;52.136;5.420;2023-07-31T13:12:45;2.55;;;2.20;;
72060;SDS011;59925;52.136;5.420;2023-07-31T13:15:11;3.85;;;2.08;;
72060;SDS011;59925;52.136;5.420;2023-07-31T13:17:38;3.47;;;2.35;;
72060;SDS011;59925;52.136;5.420;2023-07-31T13:20:05;4.70;;;2.37;;
72060;SDS011;59925;52.136;5.420;2023-07-31T13:22:32;3.85;;;2.28;;
72060;SDS011;59925;52.136;5.420;2023-07-31T13:24:59;5.00;;;2.38;;
72060;SDS011;59925;52.136;5.420;2023-07-31T13:27:26;3.95;;;2.10;;
72060;SDS011;59925;52.136;5.420;2023-07-31T13:29:52;4.10;;;2.70;;
72060;SDS011;59925;52.136;5.420;2023-07-31T13:32:19;3.63;;;2.40;;
72060;SDS011;59925;52.136;5.420;2023-07-31T13:34:46;3.75;;;2.20;;
72060;SDS011;59925;52.136;5.420;2023-07-31T13:37:14;3.78;;;2.28;;
72060;SDS011;59925;52.136;5.420;2023-07-31T13:39:41;2.97;;;1.80;;
72060;SDS011;59925;52.136;5.420;2023-07-31T13:42:08;5.03;;;2.38;;
72060;SDS011;59925;52.136;5.420;2023-07-31T13:44:38;3.23;;;2.07;;
72060;SDS011;59925;52.136;5.420;2023-07-31T13:47:05;2.83;;;2.13;;
72060;SDS011;59925;52.136;5.420;2023-07-31T13:49:32;4.03;;;2.30;;
72060;SDS011;59925;52.136;5.420;2023-07-31T13:52:00;2.97;;;1.75;;
72060;SDS011;59925;52.136;5.420;2023-07-31T13:54:26;2.15;;;1.30;;
72060;SDS011;59925;52.136;5.420;2023-07-31T13:56:56;1.93;;;1.30;;
72060;SDS011;59925;52.136;5.420;2023-07-31T13:59:23;2.45;;;1.33;;
72060;SDS011;59925;52.136;5.420;2023-07-31T14:01:49;1.70;;;1.00;;
72060;SDS011;59925;52.136;5.420;2023-07-31T14:04:16;2.75;;;1.30;;
72060;SDS011;59925;52.136;5.420;2023-07-31T14:06:44;1.60;;;1.10;;
72060;SDS011;59925;52.136;5.420;2023-07-31T14:09:10;2.60;;;1.13;;
72060;SDS011;59925;52.136;5.420;2023-07-31T14:11:37;4.50;;;1.60;;
72060;SDS011;59925;52.136;5.420;2023-07-31T14:14:08;1.80;;;1.10;;
72060;SDS011;59925;52.136;5.420;2023-07-31T14:16:35;3.75;;;1.17;;
72060;SDS011;59925;52.136;5.420;2023-07-31T14:19:02;3.15;;;1.38;;
72060;SDS011;59925;52.136;5.420;2023-07-31T14:21:29;4.70;;;1.53;;
72060;SDS011;59925;52.136;5.420;2023-07-31T14:23:55;4.28;;;1.90;;
72060;SDS011;59925;52.136;5.420;2023-07-31T14:26:22;4.97;;;2.72;;
72060;SDS011;59925;52.136;5.420;2023-07-31T14:28:49;4.85;;;3.58;;
72060;SDS011;59925;52.136;5.420;2023-07-31T14:31:15;5.15;;;3.60;;
72060;SDS011;59925;52.136;5.420;2023-07-31T14:33:42;5.83;;;3.90;;
72060;SDS011;59925;52.136;5.420;2023-07-31T14:36:09;7.38;;;4.35;;
72060;SDS011;59925;52.136;5.420;2023-07-31T14:38:35;6.05;;;4.90;;
72060;SDS011;59925;52.136;5.420;2023-07-31T14:41:02;8.15;;;5.10;;
72060;SDS011;59925;52.136;5.420;2023-07-31T14:43:28;6.50;;;4.85;;
72060;SDS011;59925;52.136;5.420;2023-07-31T14:45:55;7.67;;;5.37;;
72060;SDS011;59925;52.136;5.420;2023-07-31T14:48:26;7.45;;;5.18;;
72060;SDS011;59925;52.136;5.420;2023-07-31T14:50:53;7.38;;;5.18;;
72060;SDS011;59925;52.136;5.420;2023-07-31T14:53:20;7.00;;;4.85;;
72060;SDS011;59925;52.136;5.420;2023-07-31T14:55:47;6.75;;;4.30;;
72060;SDS011;59925;52.136;5.420;2023-07-31T14:58:14;5.60;;;4.03;;
72060;SDS011;59925;52.136;5.420;2023-07-31T15:00:40;5.45;;;3.53;;
72060;SDS011;59925;52.136;5.420;2023-07-31T15:03:07;5.55;;;3.70;;